Time;durP1;ratioP1;P1;durP2;ratioP2;P2;SDS_P1;SDS_P2;PMS_P1;PMS_P2;Temp;Humidity;BMP_temperature;BMP_pressure;BME280_temperature;BME280_humidity;BME280_pressure;Samples;Min_cycle;Max_cycle;Signal;HPM_P1;HPM_P2
2023/07/05 05:37:11;;;;;;;;;2.50;2.50;;;;;22.08;100.00;101314.03;5025130;28;51059;-74
2023/07/05 05:39:36;;;;;;;;;7.50;5.50;;;;;22.36;100.00;101309.94;5025575;28;70480;-72
2023/07/05 05:42:02;;;;;;;;;6.75;5.50;;;;;22.43;100.00;101303.56;5027853;28;49969;-72
2023/07/05 05:44:27;;;;;;;;;3.75;3.25;;;;;22.54;100.00;101314.06;5027571;28;49907;-72
2023/07/05 05:46:52;;;;;;;;;5.25;5.00;;;;;22.54;100.00;101290.88;5027125;28;50650;-74
2023/07/05 05:49:18;;;;;;;;;3.00;3.00;;;;;22.67;100.00;101317.38;5023516;28;65565;-71
2023/07/05 05:51:43;;;;;;;;;4.00;4.00;;;;;22.81;100.00;101316.19;5026965;28;68414;-72
2023/07/05 05:54:09;;;;;;;;;3.25;1.50;;;;;22.91;100.00;101316.91;5027802;28;50132;-73
2023/07/05 05:56:34;;;;;;;;;5.50;5.50;;;;;22.75;100.00;101312.75;5026701;28;50620;-73
2023/07/05 05:59:00;;;;;;;;;2.50;2.50;;;;;22.79;100.00;101322.50;5015541;28;49927;-74
2023/07/05 06:01:25;;;;;;;;;1.00;0.00;;;;;22.68;100.00;101332.50;5014762;28;67659;-71
2023/07/05 06:03:50;;;;;;;;;5.25;3.50;;;;;22.68;100.00;101333.41;5030677;28;49919;-72
2023/07/05 06:06:15;;;;;;;;;4.25;2.00;;;;;22.62;100.00;101333.53;5029150;28;69871;-69
2023/07/05 06:08:41;;;;;;;;;1.00;1.00;;;;;22.57;100.00;101333.59;5029884;28;54441;-73
2023/07/05 06:11:06;;;;;;;;;9.75;7.00;;;;;22.66;100.00;101339.69;5029780;28;64957;-72
2023/07/05 06:13:32;;;;;;;;;1.00;0.25;;;;;22.80;100.00;101334.97;5016982;28;58763;-70
2023/07/05 06:16:00;;;;;;;;;7.25;2.50;;;;;23.35;100.00;101347.16;5030643;28;49783;-74
2023/07/05 06:18:27;;;;;;;;;2.00;1.00;;;;;23.04;100.00;101350.53;5030275;28;50111;-73
2023/07/05 06:20:53;;;;;;;;;3.00;3.00;;;;;22.94;100.00;101322.19;5030203;28;49884;-70
2023/07/05 06:23:18;;;;;;;;;0.25;0.25;;;;;23.08;100.00;101346.88;5030642;28;49774;-69
2023/07/05 06:25:48;;;;;;;;;25.00;25.00;;;;;23.92;100.00;101346.72;5023842;28;49955;-70
2023/07/05 06:28:14;;;;;;;;;1.50;1.50;;;;;23.25;100.00;101348.28;5016131;28;50823;-70
2023/07/05 06:30:39;;;;;;;;;0.50;0.50;;;;;23.21;100.00;101346.59;5023375;28;50722;-70
2023/07/05 06:33:05;;;;;;;;;1.75;1.75;;;;;23.42;100.00;101340.75;5024315;28;50025;-70
2023/07/05 06:35:31;;;;;;;;;12.50;10.00;;;;;23.60;100.00;101344.84;5027615;28;51051;-71
2023/07/05 06:37:56;;;;;;;;;6.00;5.50;;;;;23.46;100.00;101339.78;5006731;28;49761;-71
2023/07/05 06:40:21;;;;;;;;;3.25;1.00;;;;;23.75;100.00;101352.53;5029790;28;49991;-71
2023/07/05 06:42:47;;;;;;;;;7.50;4.50;;;;;23.76;100.00;101348.06;5028993;28;49733;-71
2023/07/05 06:45:12;;;;;;;;;5.25;3.50;;;;;23.92;100.00;101344.94;5022777;28;57392;-71
2023/07/05 06:47:38;;;;;;;;;0.00;0.00;;;;;24.17;100.00;101349.69;5030085;28;50117;-71
2023/07/05 06:50:04;;;;;;;;;0.00;0.00;;;;;24.45;100.00;101349.84;5030213;28;50307;-70
2023/07/05 06:52:29;;;;;;;;;1.00;1.00;;;;;24.18;100.00;101363.03;5017379;28;50169;-70
2023/07/05 06:54:54;;;;;;;;;2.50;2.50;;;;;24.44;99.87;101354.34;5017148;28;65171;-70
2023/07/05 06:57:20;;;;;;;;;0.00;0.00;;;;;24.59;99.34;101370.94;5019993;28;67983;-70
2023/07/05 06:59:45;;;;;;;;;0.75;0.75;;;;;24.60;98.23;101375.38;5026826;28;52676;-70
2023/07/05 07:02:11;;;;;;;;;2.25;0.75;;;;;24.76;96.87;101380.28;5024175;28;50042;-73
2023/07/05 07:04:36;;;;;;;;;0.75;0.00;;;;;24.78;95.55;101377.56;5023346;28;49845;-73
2023/07/05 07:07:01;;;;;;;;;2.00;2.00;;;;;24.92;94.79;101383.44;5018845;28;49672;-71
2023/07/05 07:09:27;;;;;;;;;7.00;7.00;;;;;24.99;92.43;101381.44;5023431;28;49754;-70
2023/07/05 07:11:52;;;;;;;;;21.25;21.25;;;;;25.06;93.53;101383.06;5022644;28;53520;-70
2023/07/05 07:14:18;;;;;;;;;0.00;0.00;;;;;25.22;93.88;101388.88;5021821;28;71784;-70
2023/07/05 07:16:43;;;;;;;;;1.00;1.00;;;;;25.08;93.47;101365.06;5023635;28;49758;-70
2023/07/05 07:19:08;;;;;;;;;0.75;0.75;;;;;25.22;89.39;101376.31;5010401;28;50180;-69
2023/07/05 07:21:33;;;;;;;;;1.50;0.00;;;;;25.48;89.56;101393.41;5006689;28;54087;-70
2023/07/05 07:23:59;;;;;;;;;10.00;10.00;;;;;25.59;89.27;101383.25;5011388;28;50411;-70
2023/07/05 07:26:24;;;;;;;;;1.25;1.00;;;;;25.73;87.33;101393.56;5022777;28;50115;-70
2023/07/05 07:28:55;;;;;;;;;2.00;1.00;;;;;26.23;88.93;101397.28;5010201;28;49721;-70
2023/07/05 07:31:24;;;;;;;;;2.00;1.00;;;;;26.46;85.93;101400.09;5022614;28;49782;-70
2023/07/05 07:33:50;;;;;;;;;3.50;3.50;;;;;25.92;83.77;101405.50;5017680;28;51167;-70
2023/07/05 07:36:19;;;;;;;;;4.25;4.25;;;;;26.38;85.71;101402.19;5020189;28;50087;-70
2023/07/05 07:38:45;;;;;;;;;11.50;7.75;;;;;25.88;84.91;101393.09;5026284;28;49745;-69
2023/07/05 07:41:21;;;;;;;;;1.00;1.00;;;;;26.45;84.25;101410.94;5026562;28;50104;-69
2023/07/05 07:43:50;;;;;;;;;1.75;1.75;;;;;26.83;84.04;101414.97;5023594;28;49921;-69
2023/07/05 07:46:18;;;;;;;;;1.50;1.25;;;;;26.78;82.43;101414.22;5015762;28;49894;-69
2023/07/05 07:48:47;;;;;;;;;2.00;2.00;;;;;26.95;82.13;101421.72;5020380;28;49843;-69
2023/07/05 07:51:12;;;;;;;;;1.75;1.75;;;;;26.18;78.86;101427.06;5014377;28;49988;-70
2023/07/05 07:53:38;;;;;;;;;1.00;1.00;;;;;26.37;80.56;101429.13;5009567;28;66378;-69
2023/07/05 07:56:14;;;;;;;;;2.50;2.50;;;;;27.36;77.33;101430.97;5010940;28;50157;-69
2023/07/05 07:58:40;;;;;;;;;0.00;0.00;;;;;26.56;77.74;101430.28;5013057;28;50418;-69
2023/07/05 08:01:14;;;;;;;;;1.00;1.00;;;;;27.37;77.80;101438.09;5025957;28;50073;-69
2023/07/05 08:03:40;;;;;;;;;1.00;1.00;;;;;26.55;76.38;101422.25;5019066;28;51554;-69
2023/07/05 08:06:06;;;;;;;;;1.25;0.50;;;;;26.57;75.35;101429.34;5013661;28;49762;-68
2023/07/05 08:08:35;;;;;;;;;0.50;0.25;;;;;26.57;75.29;101429.34;5027244;28;49733;-69
2023/07/05 08:11:06;;;;;;;;;4.50;4.50;;;;;27.21;76.62;101421.63;5023358;28;50018;-70
2023/07/05 08:13:31;;;;;;;;;0.00;0.00;;;;;26.33;76.14;101422.94;5012827;28;50454;-70
2023/07/05 08:16:00;;;;;;;;;2.00;0.75;;;;;27.18;76.00;101416.34;5008049;28;49909;-71
2023/07/05 08:18:27;;;;;;;;;2.50;1.75;;;;;26.44;75.32;101420.81;5025301;28;50199;-72
2023/07/05 08:20:52;;;;;;;;;0.00;0.00;;;;;26.46;74.99;101435.09;5014929;28;50041;-71
2023/07/05 08:23:18;;;;;;;;;1.00;1.00;;;;;26.31;73.72;101426.63;4998199;28;50758;-72
2023/07/05 08:25:45;;;;;;;;;2.00;0.00;;;;;26.61;75.26;101405.88;5015801;28;50110;-72
2023/07/05 08:28:12;;;;;;;;;1.50;1.00;;;;;26.45;73.76;101430.66;5020488;28;50033;-71
2023/07/05 08:30:39;;;;;;;;;4.00;3.00;;;;;27.09;74.81;101439.13;5016031;28;49912;-71
2023/07/05 08:33:06;;;;;;;;;1.25;0.25;;;;;26.56;72.06;101429.41;5014012;28;49925;-71
2023/07/05 08:35:31;;;;;;;;;0.50;0.50;;;;;26.41;71.74;101412.84;5019945;28;49842;-71
2023/07/05 08:37:57;;;;;;;;;4.00;1.50;;;;;26.72;71.83;101436.88;5016539;28;49709;-71
2023/07/05 08:40:30;;;;;;;;;0.50;0.50;;;;;27.60;70.33;101442.59;5021882;28;60652;-71
2023/07/05 08:43:04;;;;;;;;;4.00;2.00;;;;;27.66;69.58;101443.28;5017216;28;50284;-71
2023/07/05 08:45:38;;;;;;;;;0.50;0.50;;;;;27.72;67.76;101450.25;5022705;28;49867;-71
2023/07/05 08:48:05;;;;;;;;;2.00;2.00;;;;;27.48;67.41;101453.88;5023438;28;49941;-72
2023/07/05 08:50:36;;;;;;;;;4.00;4.00;;;;;27.56;67.41;101425.66;5028382;28;49708;-71
2023/07/05 08:53:18;;;;;;;;;1.50;1.50;;;;;27.98;66.24;101467.22;5025103;28;50885;-71
2023/07/05 08:56:10;;;;;;;;;2.00;2.00;;;;;28.00;65.95;101462.66;5025152;28;49784;-71
2023/07/05 08:58:48;;;;;;;;;5.50;3.75;;;;;28.35;66.63;101472.88;5021094;28;50074;-72
2023/07/05 09:01:23;;;;;;;;;0.00;0.00;;;;;28.44;66.09;101479.72;5019650;28;49871;-71
2023/07/05 09:03:48;;;;;;;;;1.75;1.00;;;;;27.52;64.18;101469.00;5011966;28;50081;-72
2023/07/05 09:06:46;;;;;;;;;4.75;4.50;;;;;28.47;63.82;101447.16;5021981;28;49894;-72
2023/07/05 09:09:34;;;;;;;;;4.25;4.25;;;;;28.51;63.91;101462.31;5022078;28;49868;-72
2023/07/05 09:12:05;;;;;;;;;1.00;1.00;;;;;28.54;64.39;101474.81;5028479;28;49822;-72
2023/07/05 09:14:41;;;;;;;;;5.00;5.00;;;;;27.79;63.78;101472.47;5027774;28;50906;-71
2023/07/05 09:17:32;;;;;;;;;4.25;1.75;;;;;29.03;63.10;101463.63;5016548;28;49873;-72
2023/07/05 09:20:31;;;;;;;;;4.75;4.00;;;;;29.11;61.30;101468.69;5020129;28;49905;-72
2023/07/05 09:23:00;;;;;;;;;3.50;1.75;;;;;28.53;61.91;101468.53;5021567;28;49746;-72
2023/07/05 09:25:30;;;;;;;;;4.00;1.25;;;;;28.48;62.90;101468.75;5025557;28;50147;-70
2023/07/05 09:28:07;;;;;;;;;2.50;1.75;;;;;28.38;61.54;101434.97;5026693;28;49640;-71
2023/07/05 09:30:34;;;;;;;;;7.75;7.00;;;;;27.88;62.75;101467.56;5020833;28;49780;-71
2023/07/05 09:33:11;;;;;;;;;1.00;1.00;;;;;28.67;59.19;101463.44;5013153;28;49770;-69
2023/07/05 09:35:40;;;;;;;;;1.00;1.00;;;;;28.52;62.37;101464.06;5026518;28;50634;-68
2023/07/05 09:38:13;;;;;;;;;2.50;2.00;;;;;29.13;62.97;101452.41;4997175;28;49879;-72
2023/07/05 09:40:45;;;;;;;;;1.00;1.00;;;;;29.21;58.11;101434.00;5023835;28;49840;-72
2023/07/05 09:43:28;;;;;;;;;0.50;0.50;;;;;29.75;57.01;101456.75;5027486;28;49799;-73
2023/07/05 09:45:56;;;;;;;;;5.50;2.00;;;;;28.97;56.39;101463.94;5026778;28;51120;-72
2023/07/05 09:48:21;;;;;;;;;4.75;4.25;;;;;29.11;56.35;101462.41;5016483;28;49838;-71
2023/07/05 09:50:49;;;;;;;;;3.75;3.75;;;;;29.50;55.08;101455.19;5027756;28;50097;-71
2023/07/05 09:53:36;;;;;;;;;1.75;1.75;;;;;29.69;54.57;101463.31;5023369;28;49837;-72
2023/07/05 09:56:10;;;;;;;;;1.50;1.50;;;;;29.79;54.85;101466.47;5018944;28;50624;-71
2023/07/05 09:58:37;;;;;;;;;2.50;1.00;;;;;28.92;53.88;101465.06;5011053;28;50860;-72
2023/07/05 10:01:06;;;;;;;;;4.00;1.75;;;;;29.51;53.79;101464.19;5019356;28;49793;-71
2023/07/05 10:03:36;;;;;;;;;2.00;2.00;;;;;29.87;53.74;101470.56;5008099;28;50066;-71
2023/07/05 10:06:07;;;;;;;;;1.00;1.00;;;;;29.35;53.91;101480.25;5010301;28;51251;-72
2023/07/05 10:08:43;;;;;;;;;3.50;3.50;;;;;29.98;51.94;101477.28;5022670;28;49790;-71
2023/07/05 10:11:33;;;;;;;;;2.00;2.00;;;;;29.78;50.88;101472.81;5025444;28;49995;-76
2023/07/05 10:14:12;;;;;;;;;1.25;1.25;;;;;29.23;55.40;101478.06;4998445;28;50534;-74
2023/07/05 10:16:48;;;;;;;;;2.00;2.00;;;;;28.89;56.72;101490.41;5012942;28;50791;-74
2023/07/05 10:19:22;;;;;;;;;3.00;3.00;;;;;29.00;57.50;101498.03;5008218;28;49763;-73
2023/07/05 10:22:01;;;;;;;;;4.00;3.50;;;;;29.27;56.43;101467.06;5013454;28;49847;-70
2023/07/05 10:24:30;;;;;;;;;0.00;0.00;;;;;28.95;55.19;101486.53;5018087;28;49858;-74
2023/07/05 10:27:13;;;;;;;;;2.50;0.75;;;;;29.84;54.71;101478.84;5019234;28;50553;-70
2023/07/05 10:29:40;;;;;;;;;4.00;4.00;;;;;29.66;53.52;101477.00;5014692;28;50513;-69
2023/07/05 10:32:16;;;;;;;;;1.00;1.00;;;;;30.36;52.34;101470.84;5018806;28;50160;-69
2023/07/05 10:34:43;;;;;;;;;3.00;1.00;;;;;29.54;52.47;101466.78;5009463;28;49914;-69
2023/07/05 10:37:26;;;;;;;;;4.75;1.00;;;;;30.07;51.11;101464.19;5013255;28;49966;-68
2023/07/05 10:39:51;;;;;;;;;2.00;2.00;;;;;28.96;52.28;101489.22;5008189;28;50145;-69
2023/07/05 10:42:17;;;;;;;;;1.50;1.50;;;;;29.33;53.00;101484.81;5019043;28;49986;-68
2023/07/05 10:44:43;;;;;;;;;3.00;2.00;;;;;28.75;52.09;101495.50;5021068;28;50114;-69
2023/07/05 10:47:12;;;;;;;;;1.00;1.00;;;;;29.34;52.99;101489.31;5011064;28;50980;-68
2023/07/05 10:49:38;;;;;;;;;2.50;1.00;;;;;28.59;52.90;101481.78;5024095;28;49773;-69
2023/07/05 10:52:09;;;;;;;;;0.25;0.25;;;;;29.27;53.01;101485.13;5024989;28;50082;-69
2023/07/05 10:54:42;;;;;;;;;4.00;4.00;;;;;29.50;52.11;101492.19;5017860;28;49953;-68
2023/07/05 10:57:29;;;;;;;;;1.00;1.00;;;;;30.04;51.23;101479.69;5026261;28;49976;-69
2023/07/05 11:00:01;;;;;;;;;0.75;0.75;;;;;29.84;52.72;101457.19;5030074;28;49721;-69
2023/07/05 11:02:42;;;;;;;;;2.00;2.00;;;;;30.42;50.45;101485.94;5030413;28;49695;-71
2023/07/05 11:05:23;;;;;;;;;3.50;3.50;;;;;30.80;49.38;101470.44;5032586;28;49833;-71
2023/07/05 11:07:52;;;;;;;;;2.50;1.50;;;;;30.56;49.50;101471.69;5030416;28;51657;-70
2023/07/05 11:10:19;;;;;;;;;4.25;2.00;;;;;30.00;48.77;101478.06;5029679;28;49777;-70
2023/07/05 11:12:47;;;;;;;;;1.00;1.00;;;;;30.63;48.94;101465.00;5027741;28;49805;-70
2023/07/05 11:15:15;;;;;;;;;1.75;1.00;;;;;30.78;47.64;101473.22;5018861;28;49881;-71
2023/07/05 11:17:42;;;;;;;;;5.00;0.50;;;;;30.59;48.11;101471.50;5018504;28;50817;-76
2023/07/05 11:20:36;;;;;;;;;3.00;1.50;;;;;31.46;47.09;101469.63;5012836;28;49801;-76
2023/07/05 11:23:02;;;;;;;;;4.25;2.50;;;;;30.13;46.27;101458.47;5021554;28;49875;-78
2023/07/05 11:25:52;;;;;;;;;2.00;2.00;;;;;31.07;46.03;101462.66;5010463;28;49747;-75
2023/07/05 11:28:37;;;;;;;;;2.50;2.50;;;;;31.02;46.36;101470.19;5017247;28;50128;-74
2023/07/05 11:31:07;;;;;;;;;1.00;1.00;;;;;30.82;45.27;101468.53;5017220;28;49860;-73
2023/07/05 11:33:33;;;;;;;;;3.00;1.75;;;;;29.83;45.61;101462.66;5019911;28;49949;-77
2023/07/05 11:36:08;;;;;;;;;1.00;1.00;;;;;30.86;45.87;101478.25;5021664;28;49736;-76
2023/07/05 11:38:40;;;;;;;;;1.50;0.25;;;;;30.94;44.99;101469.72;5025518;28;51564;-76
2023/07/05 11:41:39;;;;;;;;;2.00;2.00;;;;;30.10;44.35;101468.56;5028952;28;50014;-77
2023/07/05 11:44:28;;;;;;;;;2.00;2.00;;;;;31.26;44.29;101468.88;4984864;28;50151;-72
2023/07/05 11:46:54;;;;;;;;;2.00;2.00;;;;;30.01;45.02;101467.16;5020697;28;50053;-74
2023/07/05 11:49:20;;;;;;;;;0.50;0.50;;;;;29.67;44.24;101478.75;5017261;28;50125;-74
2023/07/05 11:51:50;;;;;;;;;0.75;0.00;;;;;30.38;46.49;101487.03;5016946;28;50212;-76
2023/07/05 11:54:18;;;;;;;;;0.75;0.75;;;;;30.27;47.55;101493.00;5012457;28;49966;-74
2023/07/05 11:56:45;;;;;;;;;1.00;1.00;;;;;30.24;47.26;101500.41;5017102;28;49869;-75
2023/07/05 11:59:16;;;;;;;;;0.75;0.75;;;;;30.89;46.56;101491.66;5013259;28;49691;-77
2023/07/05 12:01:42;;;;;;;;;3.75;2.00;;;;;30.83;45.26;101499.22;5013092;28;50072;-76
2023/07/05 12:04:17;;;;;;;;;0.50;0.50;;;;;31.50;44.07;101510.09;5016972;28;49984;-76
2023/07/05 12:06:45;;;;;;;;;0.00;0.00;;;;;31.55;44.56;101502.53;5013205;28;50084;-74
2023/07/05 12:09:17;;;;;;;;;2.50;2.00;;;;;32.01;43.16;101502.72;5027346;28;50782;-77
2023/07/05 12:11:43;;;;;;;;;0.00;0.00;;;;;31.17;42.65;101482.91;5023947;28;50043;-75
2023/07/05 12:14:15;;;;;;;;;0.00;0.00;;;;;32.10;43.34;101513.06;5018020;28;49703;-75
2023/07/05 12:16:41;;;;;;;;;0.50;0.50;;;;;31.01;43.73;101522.66;5024319;28;49931;-74
2023/07/05 12:19:15;;;;;;;;;3.75;3.75;;;;;31.73;46.29;101506.06;5024226;28;50564;-75
2023/07/05 12:21:41;;;;;;;;;2.00;2.00;;;;;30.83;45.86;101520.91;5025454;28;49798;-74
2023/07/05 12:24:10;;;;;;;;;4.25;4.25;;;;;31.42;45.58;101504.19;5019951;28;50110;-75
2023/07/05 12:26:36;;;;;;;;;3.00;3.00;;;;;31.01;45.75;101506.38;5023059;28;49671;-74
2023/07/05 12:29:15;;;;;;;;;6.50;4.25;;;;;31.99;43.90;101514.63;5028169;28;49856;-74
2023/07/05 12:31:40;;;;;;;;;3.00;3.00;;;;;31.04;43.17;101506.22;5017027;28;50180;-76
2023/07/05 12:34:18;;;;;;;;;1.00;1.00;;;;;32.24;42.26;101489.66;5023655;28;51350;-77
2023/07/05 12:36:44;;;;;;;;;0.25;0.25;;;;;31.43;42.17;101499.63;5019597;28;50189;-77
2023/07/05 12:39:14;;;;;;;;;1.00;1.00;;;;;32.45;41.16;101497.47;5021370;28;51115;-77
2023/07/05 12:41:39;;;;;;;;;1.00;1.00;;;;;31.60;42.50;101495.03;5023644;28;50212;-76
2023/07/05 12:44:14;;;;;;;;;3.00;1.00;;;;;32.42;40.72;101500.34;5023048;28;49910;-77
2023/07/05 12:46:41;;;;;;;;;2.00;1.00;;;;;31.72;41.60;101492.59;5016265;28;49967;-77
2023/07/05 12:49:21;;;;;;;;;2.00;2.00;;;;;32.40;41.87;101502.28;5017655;28;50322;-77
2023/07/05 12:51:53;;;;;;;;;1.00;1.00;;;;;32.45;41.04;101499.31;5021831;28;49894;-78
2023/07/05 12:54:19;;;;;;;;;2.00;0.25;;;;;31.44;41.59;101474.25;5016976;28;50261;-81
2023/07/05 12:56:46;;;;;;;;;3.00;1.00;;;;;32.02;41.01;101484.56;5020960;28;49620;-79
2023/07/05 12:59:28;;;;;;;;;1.00;1.00;;;;;32.40;40.54;101488.69;5021744;28;50705;-78
2023/07/05 13:01:54;;;;;;;;;2.00;2.00;;;;;31.43;40.47;101457.09;5018625;28;49900;-79
2023/07/05 13:04:21;;;;;;;;;0.50;0.50;;;;;31.96;41.00;101487.66;5010495;28;49682;-81
2023/07/05 13:06:49;;;;;;;;;4.00;0.00;;;;;31.88;40.41;101483.53;5016264;28;49743;-79
2023/07/05 13:09:25;;;;;;;;;10.00;8.25;;;;;32.66;40.89;101473.53;5015685;28;50100;-79
2023/07/05 13:12:05;;;;;;;;;2.00;2.00;;;;;32.52;38.92;101473.47;5026878;28;49806;-79
2023/07/05 13:14:33;;;;;;;;;0.25;0.00;;;;;31.92;39.52;101473.38;5022896;28;50105;-80
2023/07/05 13:17:10;;;;;;;;;0.00;0.00;;;;;32.57;39.49;101476.81;5022764;28;50331;-77
2023/07/05 13:19:46;;;;;;;;;0.50;0.50;;;;;32.40;40.01;101475.09;5027087;28;50007;-79
2023/07/05 13:22:16;;;;;;;;;1.00;1.00;;;;;32.30;38.99;101482.03;5019429;28;49747;-80
2023/07/05 13:24:47;;;;;;;;;2.50;2.50;;;;;32.37;39.18;101468.97;5017491;28;49885;-80
2023/07/05 13:27:25;;;;;;;;;2.50;2.50;;;;;32.45;38.49;101472.13;5015545;28;49763;-78
2023/07/05 13:29:52;;;;;;;;;4.75;4.00;;;;;31.82;37.92;101459.44;5017285;28;50160;-79
2023/07/05 13:32:40;;;;;;;;;1.00;1.00;;;;;33.00;37.35;101453.34;5013967;28;50204;-80
2023/07/05 13:35:06;;;;;;;;;0.00;0.00;;;;;32.06;37.58;101457.16;4996608;28;49789;-78
2023/07/05 13:37:31;;;;;;;;;0.00;0.00;;;;;32.00;36.73;101457.50;5016248;28;50031;-80
2023/07/05 13:40:07;;;;;;;;;2.00;0.75;;;;;32.68;36.45;101441.69;5009356;28;53201;-80
2023/07/05 13:42:33;;;;;;;;;36.50;36.50;;;;;32.33;36.62;101442.94;5025549;28;49915;-81
2023/07/05 13:44:59;;;;;;;;;0.00;0.00;;;;;32.65;35.70;101465.50;5016861;28;49818;-80
2023/07/05 13:47:24;;;;;;;;;0.00;0.00;;;;;32.33;36.24;101471.03;5020333;28;50024;-79
2023/07/05 13:49:49;;;;;;;;;1.50;1.50;;;;;32.25;36.04;101469.69;5027332;28;50904;-79
2023/07/05 13:52:18;;;;;;;;;1.00;1.00;;;;;32.72;34.74;101469.59;5023392;28;49846;-78
2023/07/05 13:54:45;;;;;;;;;1.00;1.00;;;;;32.12;35.06;101466.78;5026869;28;50208;-80
2023/07/05 13:57:15;;;;;;;;;0.50;0.50;;;;;32.80;34.26;101458.22;5027841;28;50130;-79
2023/07/05 13:59:41;;;;;;;;;0.00;0.00;;;;;32.12;34.69;101436.91;5021073;28;49752;-78
2023/07/05 14:02:30;;;;;;;;;0.00;0.00;;;;;33.64;34.12;101442.09;5024430;28;49753;-79
2023/07/05 14:04:56;;;;;;;;;1.50;1.50;;;;;32.29;34.47;101455.81;5019359;28;51084;-80
2023/07/05 14:07:22;;;;;;;;;2.00;1.00;;;;;32.16;32.92;101469.25;5022826;28;49802;-79
2023/07/05 14:09:47;;;;;;;;;2.25;1.00;;;;;32.24;33.51;101459.78;5014941;28;50110;-80
2023/07/05 14:12:18;;;;;;;;;2.00;2.00;;;;;33.23;32.57;101472.81;5010573;28;68761;-79
2023/07/05 14:14:43;;;;;;;;;1.00;0.00;;;;;32.22;31.91;101468.00;5018079;28;50121;-79
2023/07/05 14:17:20;;;;;;;;;2.00;2.00;;;;;33.62;31.87;101465.81;5016174;28;50856;-80
2023/07/05 14:19:46;;;;;;;;;1.25;1.25;;;;;33.01;31.48;101463.28;5009386;28;50128;-80
2023/07/05 14:22:18;;;;;;;;;0.75;0.75;;;;;33.72;30.57;101465.13;5023461;28;49751;-79
2023/07/05 14:24:45;;;;;;;;;3.00;1.50;;;;;33.16;30.08;101466.00;5027132;28;49802;-79
2023/07/05 14:27:23;;;;;;;;;0.00;0.00;;;;;34.43;29.81;101466.78;5020164;28;49802;-80
2023/07/05 14:29:53;;;;;;;;;1.25;1.25;;;;;34.18;29.12;101483.03;5023402;28;49902;-80
2023/07/05 14:32:19;;;;;;;;;4.00;4.00;;;;;33.35;30.50;101482.91;5029996;28;50028;-80
2023/07/05 14:34:45;;;;;;;;;0.00;0.00;;;;;33.33;30.93;101490.28;5027056;28;51639;-77
2023/07/05 14:37:11;;;;;;;;;1.75;1.75;;;;;32.98;31.41;101487.91;5021687;28;50055;-77
2023/07/05 14:39:37;;;;;;;;;0.00;0.00;;;;;33.42;31.24;101487.03;5024357;28;50140;-78
2023/07/05 14:42:03;;;;;;;;;2.00;2.00;;;;;33.12;31.49;101451.72;5018189;28;49786;-79
2023/07/05 14:44:30;;;;;;;;;0.75;0.00;;;;;33.40;31.63;101480.81;5025239;28;50040;-79
2023/07/05 14:46:56;;;;;;;;;5.25;4.75;;;;;33.31;31.38;101476.78;5016252;28;50163;-78
2023/07/05 14:49:21;;;;;;;;;1.75;1.75;;;;;33.94;30.36;101471.91;5018787;28;49876;-78
2023/07/05 14:51:47;;;;;;;;;4.50;2.75;;;;;34.42;30.51;101473.22;5014638;28;50762;-79
2023/07/05 14:54:12;;;;;;;;;2.75;2.75;;;;;33.91;30.36;101473.00;5023637;28;50174;-79
2023/07/05 14:56:38;;;;;;;;;0.50;0.50;;;;;33.68;30.56;101449.06;5028106;28;49948;-80
2023/07/05 14:59:05;;;;;;;;;0.50;0.50;;;;;34.54;30.12;101463.31;5019971;28;61643;-78
2023/07/05 15:01:31;;;;;;;;;0.00;0.00;;;;;33.95;30.51;101460.91;5029736;28;49844;-79
2023/07/05 15:03:57;;;;;;;;;2.00;2.00;;;;;33.62;30.93;101446.75;5029697;28;49760;-79
2023/07/05 15:06:22;;;;;;;;;5.25;3.50;;;;;33.43;29.15;101461.56;5030525;28;49741;-79
2023/07/05 15:08:48;;;;;;;;;102.00;91.75;;;;;33.11;29.10;101462.69;5017515;28;49818;-79
2023/07/05 15:11:15;;;;;;;;;2.00;2.00;;;;;33.34;27.36;101464.84;5013439;28;50149;-82
2023/07/05 15:13:45;;;;;;;;;10.00;10.00;;;;;33.63;27.61;101452.09;5021616;28;49703;-76
2023/07/05 15:16:15;;;;;;;;;0.00;0.00;;;;;34.38;28.83;101458.03;5029959;28;49899;-80
2023/07/05 15:18:41;;;;;;;;;0.00;0.00;;;;;33.66;28.66;101462.78;5029605;28;49954;-76
2023/07/05 15:21:08;;;;;;;;;5.25;5.00;;;;;33.61;29.05;101462.22;5010688;28;49729;-76
2023/07/05 15:23:34;;;;;;;;;0.50;0.00;;;;;33.52;28.45;101458.25;5022155;28;49801;-74
2023/07/05 15:26:00;;;;;;;;;2.00;0.00;;;;;32.77;29.00;101459.28;5023397;28;49839;-77
2023/07/05 15:28:25;;;;;;;;;2.00;2.00;;;;;32.84;29.06;101455.28;5015322;28;50799;-74
2023/07/05 15:30:50;;;;;;;;;1.00;0.00;;;;;33.07;29.05;101450.25;5007448;28;60134;-74
2023/07/05 15:33:16;;;;;;;;;1.25;1.25;;;;;33.01;29.29;101451.53;5013922;28;49880;-75
2023/07/05 15:35:41;;;;;;;;;1.00;1.00;;;;;34.34;28.32;101454.63;5014280;28;49858;-75
2023/07/05 15:38:07;;;;;;;;;3.25;1.75;;;;;35.76;26.89;101487.41;5027078;28;50307;-74
2023/07/05 15:40:32;;;;;;;;;0.50;0.00;;;;;36.82;25.83;101475.69;5012300;28;49813;-74
2023/07/05 15:42:57;;;;;;;;;2.75;2.75;;;;;37.67;25.23;101453.41;5028083;28;49785;-74
2023/07/05 15:45:27;;;;;;;;;6.00;6.00;;;;;37.07;25.47;101447.28;5023107;28;50764;-74
2023/07/05 15:47:54;;;;;;;;;2.00;1.00;;;;;38.02;24.02;101453.22;5015620;28;49767;-75
2023/07/05 15:50:20;;;;;;;;;4.50;4.50;;;;;40.63;22.33;101443.53;5029245;28;49818;-75
2023/07/05 15:52:46;;;;;;;;;0.00;0.00;;;;;40.89;21.05;101430.06;5021135;28;49941;-75
2023/07/05 15:55:13;;;;;;;;;1.00;1.00;;;;;40.19;21.96;101453.25;5021389;28;50140;-75
2023/07/05 15:57:38;;;;;;;;;1.00;1.00;;;;;40.81;21.33;101455.53;5022453;28;50901;-76
2023/07/05 16:00:08;;;;;;;;;2.50;2.50;;;;;43.93;19.18;101445.53;5019201;28;55181;-76
2023/07/05 16:02:41;;;;;;;;;0.00;0.00;;;;;46.12;17.27;101435.94;5006910;28;50275;-75
2023/07/05 16:05:07;;;;;;;;;3.75;1.75;;;;;42.99;18.45;101413.28;5023432;28;50049;-75
2023/07/05 16:07:33;;;;;;;;;3.00;1.50;;;;;40.85;20.56;101431.34;5023375;28;50704;-76
2023/07/05 16:09:58;;;;;;;;;1.25;1.25;;;;;39.05;21.77;101426.94;5020164;28;49758;-76
2023/07/05 16:12:24;;;;;;;;;0.00;0.00;;;;;38.25;22.24;101433.00;5016681;28;49891;-76
2023/07/05 16:14:50;;;;;;;;;0.50;0.50;;;;;37.05;23.00;101432.84;5023605;28;50093;-74
2023/07/05 16:17:15;;;;;;;;;1.00;1.00;;;;;36.00;23.32;101433.72;5016932;28;50713;-75
2023/07/05 16:19:41;;;;;;;;;1.75;1.75;;;;;35.16;24.37;101448.03;4994098;28;50123;-75
2023/07/05 16:22:06;;;;;;;;;1.00;1.00;;;;;34.42;24.66;101444.09;5024955;28;50115;-75
2023/07/05 16:24:31;;;;;;;;;3.75;2.00;;;;;33.86;25.88;101447.84;5028990;28;50007;-74
2023/07/05 16:26:56;;;;;;;;;3.00;3.00;;;;;33.61;26.24;101448.63;5006359;28;72598;-75
2023/07/05 16:29:22;;;;;;;;;2.50;2.50;;;;;33.18;27.10;101455.88;5027259;28;61424;-75
2023/07/05 16:31:49;;;;;;;;;1.50;1.50;;;;;33.28;26.83;101457.03;5028290;28;66960;-76
2023/07/05 16:34:15;;;;;;;;;4.25;3.00;;;;;32.27;27.60;101463.19;5008606;28;49875;-74
2023/07/05 16:36:40;;;;;;;;;1.00;1.00;;;;;32.22;28.12;101465.28;5012323;28;73468;-73
2023/07/05 16:39:06;;;;;;;;;1.00;1.00;;;;;32.16;27.99;101466.53;5021343;28;63308;-73
2023/07/05 16:41:31;;;;;;;;;0.00;0.00;;;;;31.93;28.78;101469.69;5023614;28;50043;-76
2023/07/05 16:43:57;;;;;;;;;1.00;1.00;;;;;31.45;29.56;101465.16;5027326;28;49691;-75
2023/07/05 16:46:23;;;;;;;;;2.00;2.00;;;;;31.47;29.93;101479.53;5027214;28;71796;-81
2023/07/05 16:48:49;;;;;;;;;4.75;4.00;;;;;30.73;30.63;101474.44;5021253;28;49866;-79
2023/07/05 16:51:16;;;;;;;;;3.25;3.25;;;;;30.36;31.03;101475.41;5022544;28;49870;-79
2023/07/05 16:53:42;;;;;;;;;1.50;1.50;;;;;30.23;31.25;101469.75;5021455;28;49785;-80
2023/07/05 16:56:08;;;;;;;;;2.00;2.00;;;;;30.14;31.83;101490.03;5017788;28;51715;-79
2023/07/05 16:58:34;;;;;;;;;2.00;2.00;;;;;30.00;32.15;101488.91;5013439;28;49820;-80
2023/07/05 17:01:03;;;;;;;;;1.00;1.00;;;;;30.33;32.70;101487.28;5016843;28;50086;-87
2023/07/05 17:03:33;;;;;;;;;8.00;8.00;;;;;30.68;32.24;101487.31;5016928;28;50021;-80
2023/07/05 17:05:59;;;;;;;;;0.50;0.50;;;;;30.17;32.65;101481.72;5017091;28;50798;-77
2023/07/05 17:08:25;;;;;;;;;5.00;4.25;;;;;30.37;32.94;101479.84;5021904;28;49895;-75
2023/07/05 17:10:54;;;;;;;;;4.25;4.25;;;;;30.64;32.39;101467.66;5021704;28;49860;-80